Calverton, Virginia
Current Conditions -  °F | °C
As of 2:15 AM on Sunday 23 Nov 2014 (Local Time) from KHWY Reporting Station
Broken Clouds Broken Clouds  
Wind Chill: 41°   Ceiling: 11000
Heat Index: 41°   Visibility: 10mi
Dew Point: 25°   Wind: 3mph
Humidity: 52%   Direction: 200°SSW
Pressure: 30.22"   Gusts: NA
Location:  38.63°N, 77.67°W
Report Text: KHWY 230715Z AUTO 20003KT 10SM BKN110 05/M04 A3022 RMK AO2 T00521040
Loading
Personal Weather Stations






























Interactive Weather Map New forecast layout! Learn more

10-Day Weather Forecast

Advertisements
Track Severe Weather on mobile